Terminal Aerodrome Forecast
Issued by NWS Melbourne, FL

Home | Current Version | Previous Version | Text Only | Print | Product List | Glossary On
Versions: 1 2 3 4 5 6 7 8 9 10 11 12 13 14 15 16 17 18 19 20 21 22 23 24 25 26 27 28 29 30
798
FTUS42 KMLB 032340
TAFMCO
TAF
KMCO 032340Z 0400/0424 29004KT P6SM FEW050 FEW100 OVC300
     FM040900 23004KT P6SM SCT030 BKN050
     FM041400 24009KT P6SM VCTS SCT020CB BKN040
      TEMPO 0415/0419 3SM TSRA BKN025CB=

USA.gov is the U.S. government's official web portal to all federal, state and local government web resources and services.